Time;durP1;ratioP1;P1;durP2;ratioP2;P2;SDS_P1;SDS_P2;PMS_P1;PMS_P2;Temp;Humidity;BMP_temperature;BMP_pressure;BME280_temperature;BME280_humidity;BME280_pressure;Samples;Min_cycle;Max_cycle;Signal;HPM_P1;HPM_P2
2021/06/11 09:34:25;;;;;;;472.63;448.50;;;22.20;99.90;;;;;;5122751;27;20588;-69
2021/06/11 09:37:20;;;;;;;408.42;388.77;;;22.30;99.90;;;;;;5089579;28;20313;-67
2021/06/11 09:40:03;;;;;;;466.17;442.77;;;22.30;99.90;;;;;;5089993;28;20221;-72
2021/06/11 09:42:34;;;;;;;450.05;427.33;;;22.50;99.90;;;;;;5090760;28;20159;-72
2021/06/11 09:45:04;;;;;;;492.77;467.45;;;22.50;99.90;;;;;;5090690;28;20167;-72
2021/06/11 09:47:42;;;;;;;448.48;426.08;;;22.50;99.90;;;;;;5090734;28;20737;-71
2021/06/11 09:50:19;;;;;;;437.10;415.58;;;22.50;99.90;;;;;;5090702;28;20163;-71
2021/06/11 09:53:07;;;;;;;487.23;462.40;;;22.30;99.90;;;;;;5090467;28;20190;-72
2021/06/11 09:55:42;;;;;;;477.85;453.75;;;22.20;99.90;;;;;;5090752;28;20167;-71
2021/06/11 09:58:21;;;;;;;477.77;453.55;;;22.10;99.90;;;;;;5090467;28;20174;-70
2021/06/11 10:00:53;;;;;;;458.58;435.70;;;22.10;99.90;;;;;;5090408;28;20570;-69
2021/06/11 10:03:29;;;;;;;467.83;444.25;;;22.00;99.90;;;;;;5090366;28;20530;-72
2021/06/11 10:05:56;;;;;;;484.63;460.23;;;22.10;99.90;;;;;;5090325;28;20586;-72
2021/06/11 10:08:24;;;;;;;441.05;419.23;;;22.20;99.90;;;;;;5090234;28;20172;-73
2021/06/11 10:10:52;;;;;;;381.35;363.30;;;22.40;99.90;;;;;;5090161;28;20168;-73
2021/06/11 10:13:20;;;;;;;416.48;396.08;;;22.50;99.90;;;;;;5090043;28;20293;-71
2021/06/11 10:15:47;;;;;;;397.80;378.13;;;22.60;99.90;;;;;;5090060;28;20171;-69
2021/06/11 10:18:13;;;;;;;394.92;375.35;;;22.80;99.90;;;;;;5089996;28;20644;-68
2021/06/11 10:20:40;;;;;;;375.55;357.80;;;22.80;99.90;;;;;;5089950;28;20176;-67
2021/06/11 10:23:08;;;;;;;343.35;327.40;;;22.80;99.90;;;;;;5089927;28;20168;-63
2021/06/11 10:25:34;;;;;;;369.40;351.95;;;22.80;99.90;;;;;;5089778;28;20173;-63
2021/06/11 10:28:01;;;;;;;359.50;342.75;;;22.80;99.90;;;;;;5094511;28;20289;-63
2021/06/11 10:30:28;;;;;;;386.90;368.48;;;22.70;99.90;;;;;;5110085;28;20233;-63
2021/06/11 10:32:55;;;;;;;365.23;348.00;;;22.70;99.90;;;;;;5109702;28;20305;-63
2021/06/11 10:35:40;;;;;;;275.80;263.25;;;22.80;99.90;;;;;;5109956;28;20167;-63
2021/06/11 10:38:09;;;;;;;303.85;289.90;;;23.00;99.90;;;;;;5109871;28;20631;-63
2021/06/11 10:40:40;;;;;;;349.48;333.13;;;23.20;99.90;;;;;;5109949;28;20166;-63
2021/06/11 10:43:24;;;;;;;282.98;270.08;;;23.20;99.90;;;;;;5109894;28;20191;-63
2021/06/11 10:45:51;;;;;;;349.75;333.42;;;23.10;99.90;;;;;;5094986;28;20570;-62
2021/06/11 10:48:17;;;;;;;365.85;348.52;;;23.00;99.90;;;;;;5096180;28;20628;-63
2021/06/11 10:50:44;;;;;;;376.50;358.58;;;22.90;99.90;;;;;;5096104;28;20566;-63
2021/06/11 10:53:11;;;;;;;379.52;361.52;;;22.90;99.90;;;;;;5095949;28;20269;-63
2021/06/11 10:55:51;;;;;;;264.83;252.75;;;23.00;99.90;;;;;;5096026;28;20171;-63
2021/06/11 10:58:16;;;;;;;271.65;259.30;;;23.10;99.90;;;;;;5095770;28;20160;-70
2021/06/11 11:00:42;;;;;;;344.27;328.27;;;23.10;99.90;;;;;;5095928;28;20214;-67
2021/06/11 11:03:23;;;;;;;319.13;304.33;;;23.20;99.90;;;;;;5095782;28;20170;-66
2021/06/11 11:05:49;;;;;;;230.23;219.55;;;23.30;99.90;;;;;;5095868;28;20698;-66
2021/06/11 11:08:14;;;;;;;256.50;244.77;;;23.30;99.90;;;;;;5095828;28;20171;-66
2021/06/11 11:10:42;;;;;;;231.45;220.95;;;23.40;99.90;;;;;;5095762;28;20236;-74
2021/06/11 11:13:18;;;;;;;232.93;222.35;;;23.50;99.90;;;;;;5095681;28;20194;-71
2021/06/11 11:15:49;;;;;;;223.18;213.10;;;23.60;99.90;;;;;;5095698;28;20221;-70
2021/06/11 11:18:23;;;;;;;218.13;208.15;;;23.60;99.90;;;;;;5095694;28;20162;-69
2021/06/11 11:20:51;;;;;;;251.07;239.68;;;23.80;99.90;;;;;;5095653;28;20186;-69
2021/06/11 11:23:19;;;;;;;212.52;202.65;;;23.90;99.90;;;;;;5095527;28;20167;-69
2021/06/11 11:25:46;;;;;;;244.95;233.82;;;24.00;99.90;;;;;;5095525;28;20529;-69
2021/06/11 11:28:13;;;;;;;229.60;219.23;;;24.00;99.90;;;;;;5095449;28;20171;-64
2021/06/11 11:30:42;;;;;;;227.07;216.27;;;24.00;99.90;;;;;;5095460;28;20220;-73
2021/06/11 11:33:09;;;;;;;212.57;200.90;;;23.90;99.90;;;;;;5095071;28;20253;-70
2021/06/11 11:35:44;;;;;;;226.68;216.23;;;23.90;99.90;;;;;;5095336;28;20175;-69
2021/06/11 11:38:10;;;;;;;237.70;226.75;;;24.10;99.90;;;;;;5095361;28;20292;-69
2021/06/11 11:40:37;;;;;;;210.70;201.18;;;24.20;99.90;;;;;;5095192;28;20164;-69
2021/06/11 11:43:04;;;;;;;211.15;201.30;;;24.30;99.90;;;;;;5095225;28;20192;-69
2021/06/11 11:45:31;;;;;;;262.92;251.00;;;24.40;99.90;;;;;;5095176;28;20636;-69
2021/06/11 11:47:59;;;;;;;268.73;256.60;;;24.30;99.90;;;;;;5095101;28;20171;-68
2021/06/11 11:50:27;;;;;;;211.95;202.30;;;24.20;99.90;;;;;;5095045;28;20178;-69
2021/06/11 11:52:56;;;;;;;221.93;211.55;;;24.20;99.90;;;;;;5094889;28;20187;-68
2021/06/11 11:55:23;;;;;;;266.02;253.80;;;24.20;99.90;;;;;;5094202;28;20201;-68
2021/06/11 11:57:49;;;;;;;278.38;265.80;;;24.30;99.90;;;;;;5094668;28;20167;-69
2021/06/11 12:00:16;;;;;;;302.60;288.73;;;24.40;99.90;;;;;;5094786;28;20183;-66
2021/06/11 12:02:45;;;;;;;281.25;268.48;;;24.50;99.90;;;;;;5094680;28;20176;-71
2021/06/11 12:05:12;;;;;;;294.80;281.17;;;24.60;99.90;;;;;;5094779;28;20175;-70
2021/06/11 12:07:38;;;;;;;256.60;245.05;;;24.60;99.90;;;;;;5093433;28;20587;-69
2021/06/11 12:10:04;;;;;;;192.27;183.52;;;24.50;99.90;;;;;;5094716;28;20167;-70
2021/06/11 12:12:30;;;;;;;194.35;185.52;;;24.50;99.90;;;;;;5094489;28;20198;-69
2021/06/11 12:14:56;;;;;;;244.85;233.82;;;24.60;99.90;;;;;;5094613;28;20163;-73
2021/06/11 12:17:22;;;;;;;279.45;266.85;;;24.70;99.90;;;;;;5094537;28;20231;-71
2021/06/11 12:19:49;;;;;;;250.68;239.38;;;24.90;99.90;;;;;;5094492;28;20167;-68
2021/06/11 12:22:15;;;;;;;259.10;247.32;;;25.00;99.90;;;;;;5094326;28;20172;-67
2021/06/11 12:24:41;;;;;;;263.13;251.20;;;24.90;99.90;;;;;;5094384;28;20512;-70
2021/06/11 12:27:07;;;;;;;203.82;194.48;;;24.80;99.90;;;;;;5094360;28;20175;-68
2021/06/11 12:29:33;;;;;;;254.32;242.23;;;24.80;99.90;;;;;;5093004;28;20660;-70
2021/06/11 12:31:59;;;;;;;253.73;242.00;;;25.00;99.90;;;;;;5092680;28;20183;-70
2021/06/11 12:34:25;;;;;;;268.58;256.38;;;25.10;99.90;;;;;;5094122;28;20166;-70
2021/06/11 12:36:50;;;;;;;222.02;211.98;;;25.40;99.90;;;;;;5094152;28;20498;-69
2021/06/11 12:39:16;;;;;;;226.75;216.50;;;25.50;99.90;;;;;;5094179;28;20262;-69
2021/06/11 12:41:42;;;;;;;210.90;201.32;;;25.50;99.90;;;;;;5094031;28;20495;-69
2021/06/11 12:44:15;;;;;;;231.55;221.00;;;25.50;99.90;;;;;;5094042;28;20178;-70
2021/06/11 12:46:42;;;;;;;234.93;224.23;;;25.50;99.90;;;;;;5093992;28;20167;-69
2021/06/11 12:49:08;;;;;;;260.25;248.40;;;25.50;99.90;;;;;;5093918;28;20262;-70
2021/06/11 12:51:33;;;;;;;231.90;221.45;;;25.50;99.90;;;;;;5093859;28;20250;-67
2021/06/11 12:53:59;;;;;;;199.02;189.93;;;25.60;99.90;;;;;;5092743;28;20219;-68
2021/06/11 12:56:25;;;;;;;186.65;178.15;;;25.70;99.90;;;;;;5093805;28;20643;-68
2021/06/11 12:58:50;;;;;;;182.82;174.43;;;25.80;99.90;;;;;;5093689;28;20187;-69
2021/06/11 13:01:16;;;;;;;177.45;169.32;;;25.90;99.90;;;;;;5093747;28;20245;-68
2021/06/11 13:03:42;;;;;;;174.23;166.32;;;25.90;99.90;;;;;;5092354;28;20178;-69
2021/06/11 13:06:07;;;;;;;215.23;205.18;;;26.10;99.90;;;;;;5093585;28;20163;-69
2021/06/11 13:08:33;;;;;;;261.73;249.90;;;26.00;99.90;;;;;;5092117;28;20178;-69
2021/06/11 13:11:00;;;;;;;207.48;198.13;;;25.70;99.90;;;;;;5093548;28;20581;-68
2021/06/11 13:13:26;;;;;;;159.65;152.27;;;25.60;99.90;;;;;;5093659;28;20528;-69
2021/06/11 13:15:51;;;;;;;174.73;166.77;;;26.00;99.90;;;;;;5093534;28;20164;-69
2021/06/11 13:18:17;;;;;;;231.55;221.05;;;26.30;99.90;;;;;;5092252;28;20703;-69
2021/06/11 13:20:42;;;;;;;238.00;227.20;;;26.50;99.90;;;;;;5093521;28;20704;-69
2021/06/11 13:23:09;;;;;;;243.05;231.93;;;26.20;99.90;;;;;;5093496;28;20524;-69
2021/06/11 13:25:35;;;;;;;226.93;216.60;;;26.00;99.90;;;;;;5093549;28;20301;-72
2021/06/11 13:28:02;;;;;;;168.10;160.35;;;25.60;99.90;;;;;;5093619;28;20250;-72
2021/06/11 13:30:28;;;;;;;226.93;216.60;;;25.50;99.90;;;;;;5093807;28;20173;-68
2021/06/11 13:32:54;;;;;;;180.30;171.98;;;25.80;99.90;;;;;;5093077;28;20222;-70
2021/06/11 13:35:20;;;;;;;269.77;257.42;;;26.10;99.90;;;;;;5093286;28;20163;-71
2021/06/11 13:37:45;;;;;;;256.83;245.02;;;26.40;99.90;;;;;;5093257;28;20262;-68
2021/06/11 13:40:12;;;;;;;271.20;258.85;;;26.50;99.90;;;;;;5092996;28;20254;-71
2021/06/11 13:42:41;;;;;;;194.25;185.45;;;26.70;99.90;;;;;;5093146;28;20177;-70
2021/06/11 13:45:08;;;;;;;271.88;259.55;;;27.00;99.90;;;;;;5093225;28;20163;-70
2021/06/11 13:47:33;;;;;;;292.70;279.35;;;27.20;99.90;;;;;;5093136;28;20163;-68
2021/06/11 13:49:59;;;;;;;347.40;331.25;;;27.30;99.90;;;;;;5093181;28;20605;-69
2021/06/11 13:52:25;;;;;;;340.00;324.27;;;27.20;99.90;;;;;;5093119;28;20532;-69
2021/06/11 13:54:51;;;;;;;290.20;276.85;;;26.80;99.90;;;;;;5093110;28;20171;-69
2021/06/11 13:57:17;;;;;;;213.88;204.00;;;26.60;99.90;;;;;;5093158;28;20220;-63
2021/06/11 13:59:42;;;;;;;166.07;158.63;;;26.50;99.90;;;;;;5093050;28;20538;-65
2021/06/11 14:02:08;;;;;;;256.98;245.30;;;27.00;99.90;;;;;;5092996;28;20194;-66
2021/06/11 14:04:34;;;;;;;288.48;275.35;;;27.30;99.90;;;;;;5093028;28;20175;-65
2021/06/11 14:06:59;;;;;;;343.60;327.52;;;27.50;99.90;;;;;;5093033;28;20174;-65
2021/06/11 14:09:25;;;;;;;361.88;344.88;;;27.80;99.90;;;;;;5093028;28;20175;-66
2021/06/11 14:11:50;;;;;;;338.42;322.73;;;28.00;99.90;;;;;;5093022;28;20178;-65
2021/06/11 14:14:16;;;;;;;372.63;355.15;;;28.10;99.90;;;;;;5092956;28;20166;-65
2021/06/11 14:16:42;;;;;;;377.70;359.90;;;28.10;99.90;;;;;;5092980;28;20240;-65
2021/06/11 14:19:07;;;;;;;435.40;414.05;;;28.10;99.90;;;;;;5093712;28;20201;-65
2021/06/11 14:21:33;;;;;;;305.95;292.00;;;28.10;99.90;;;;;;5095447;28;20167;-65
2021/06/11 14:23:58;;;;;;;302.08;288.02;;;27.90;99.90;;;;;;5096630;28;20226;-65
2021/06/11 14:26:25;;;;;;;274.15;261.75;;;27.80;99.90;;;;;;5096690;28;20195;-65
2021/06/11 14:28:50;;;;;;;223.77;213.68;;;27.70;99.90;;;;;;5096648;28;20167;-65
2021/06/11 14:31:17;;;;;;;420.05;399.77;;;28.10;99.90;;;;;;5096592;28;20277;-65
2021/06/11 14:33:43;;;;;;;586.17;553.72;;;28.10;99.90;;;;;;5096373;28;20718;-65
2021/06/11 14:36:09;;;;;;;385.13;366.88;;;27.80;99.90;;;;;;5096512;28;20171;-65
2021/06/11 14:38:35;;;;;;;338.67;322.83;;;27.80;99.90;;;;;;5096324;28;20241;-65
2021/06/11 14:41:01;;;;;;;372.77;355.13;;;27.80;99.90;;;;;;5095096;28;20178;-65
2021/06/11 14:43:27;;;;;;;376.52;358.77;;;27.80;99.90;;;;;;5096240;28;20304;-65
2021/06/11 14:45:53;;;;;;;384.67;366.27;;;27.80;99.90;;;;;;5096317;28;20183;-65
2021/06/11 14:48:20;;;;;;;409.33;389.40;;;27.90;99.90;;;;;;5096288;28;20647;-65
2021/06/11 14:50:45;;;;;;;408.58;388.90;;;27.80;99.90;;;;;;5096222;28;20155;-65
2021/06/11 14:53:15;;;;;;;369.15;351.80;;;27.90;99.90;;;;;;5095948;28;20202;-65
2021/06/11 14:55:44;;;;;;;328.58;313.48;;;28.10;99.90;;;;;;5096072;28;20228;-65
2021/06/11 14:58:10;;;;;;;465.13;441.77;;;28.40;99.90;;;;;;5095952;28;20201;-65
2021/06/11 15:00:38;;;;;;;486.25;461.67;;;28.70;99.90;;;;;;5096032;28;20159;-65
2021/06/11 15:03:04;;;;;;;594.97;561.50;;;29.10;99.90;;;;;;5095876;28;20190;-65
2021/06/11 15:05:30;;;;;;;597.85;564.45;;;29.20;99.90;;;;;;5095955;28;20216;-65
2021/06/11 15:07:56;;;;;;;574.97;543.28;;;29.10;99.90;;;;;;5095878;28;20171;-65
2021/06/11 15:10:21;;;;;;;522.45;495.02;;;29.10;99.90;;;;;;5095865;28;20279;-65
2021/06/11 15:12:47;;;;;;;468.65;444.52;;;28.90;99.90;;;;;;5095877;28;20221;-65
2021/06/11 15:15:14;;;;;;;592.90;559.75;;;29.10;99.90;;;;;;5095768;28;20209;-65
2021/06/11 15:17:40;;;;;;;540.95;512.03;;;29.00;99.90;;;;;;5095747;28;20170;-65
2021/06/11 15:20:07;;;;;;;576.92;545.30;;;29.20;99.90;;;;;;5095702;28;20530;-65
2021/06/11 15:22:33;;;;;;;600.03;566.47;;;29.00;99.90;;;;;;5095503;28;20191;-65
2021/06/11 15:24:59;;;;;;;451.92;429.63;;;28.50;99.90;;;;;;5095533;28;20172;-65
2021/06/11 15:27:24;;;;;;;492.63;467.30;;;28.20;99.90;;;;;;5095615;28;20197;-65
2021/06/11 15:29:50;;;;;;;466.70;443.17;;;28.00;99.90;;;;;;5095299;28;20163;-65
2021/06/11 15:32:15;;;;;;;562.28;531.40;;;27.70;99.90;;;;;;5095289;28;20236;-65
2021/06/11 15:34:41;;;;;;;425.90;405.10;;;27.00;99.90;;;;;;5095261;28;20168;-65
2021/06/11 15:37:07;;;;;;;352.58;335.63;;;26.80;99.90;;;;;;5095346;28;20164;-65
2021/06/11 15:39:32;;;;;;;338.90;323.17;;;26.80;99.90;;;;;;5095306;28;20206;-64
2021/06/11 15:41:58;;;;;;;290.38;277.13;;;27.20;99.90;;;;;;5095176;28;20167;-65
2021/06/11 15:44:24;;;;;;;316.45;301.75;;;27.60;99.90;;;;;;5095156;28;20174;-65
2021/06/11 15:46:52;;;;;;;445.17;423.17;;;27.90;99.90;;;;;;5095194;28;20172;-65
2021/06/11 15:49:18;;;;;;;404.88;385.23;;;27.80;99.90;;;;;;5095095;28;20199;-65
2021/06/11 15:51:44;;;;;;;424.58;403.88;;;27.50;99.90;;;;;;5095027;28;20163;-65
2021/06/11 15:54:09;;;;;;;244.50;233.40;;;27.00;99.90;;;;;;5095024;28;20172;-65
2021/06/11 15:56:36;;;;;;;319.65;304.92;;;27.30;99.90;;;;;;5095005;28;20170;-65
2021/06/11 15:59:03;;;;;;;315.35;300.65;;;27.60;99.90;;;;;;5094794;28;20199;-65
2021/06/11 16:01:29;;;;;;;356.40;339.48;;;28.00;99.90;;;;;;5095222;28;20624;-65
2021/06/11 16:03:55;;;;;;;390.10;370.60;;;28.00;99.90;;;;;;5094732;28;20645;-65
2021/06/11 16:06:36;;;;;;;441.17;419.17;;;28.00;99.90;;;;;;5094817;28;20187;-65
2021/06/11 16:09:02;;;;;;;316.75;301.88;;;27.80;99.90;;;;;;5094726;28;20170;-65
2021/06/11 16:11:27;;;;;;;391.25;371.00;;;28.00;99.90;;;;;;5094608;28;20170;-65
2021/06/11 16:13:53;;;;;;;267.52;255.10;;;28.00;99.90;;;;;;5094601;28;20171;-65
2021/06/11 16:16:19;;;;;;;434.98;413.55;;;28.10;99.90;;;;;;5094623;28;20172;-65
2021/06/11 16:18:44;;;;;;;454.45;431.70;;;28.40;99.90;;;;;;5094515;28;20175;-66
2021/06/11 16:21:10;;;;;;;383.40;365.17;;;28.30;99.90;;;;;;5094567;28;20713;-65
2021/06/11 16:23:35;;;;;;;426.88;406.17;;;28.30;99.90;;;;;;5094420;28;20202;-65
2021/06/11 16:26:01;;;;;;;371.88;354.35;;;28.10;99.90;;;;;;5094330;28;20657;-65
2021/06/11 16:28:27;;;;;;;399.40;379.83;;;28.10;99.90;;;;;;5094379;28;20250;-65
2021/06/11 16:30:53;;;;;;;484.38;459.70;;;28.40;99.90;;;;;;5094262;28;20518;-65
2021/06/11 16:33:19;;;;;;;450.25;428.10;;;28.60;99.90;;;;;;5094112;28;20264;-65
2021/06/11 16:35:46;;;;;;;386.90;368.52;;;28.70;99.90;;;;;;5092914;28;20644;-65
2021/06/11 16:38:14;;;;;;;341.92;326.23;;;28.80;99.90;;;;;;5094141;28;20178;-65
2021/06/11 16:40:41;;;;;;;435.73;414.40;;;29.10;99.90;;;;;;5094091;28;20655;-65
2021/06/11 16:43:08;;;;;;;454.05;431.50;;;29.10;99.90;;;;;;5093490;28;20285;-65
2021/06/11 16:45:35;;;;;;;439.67;418.08;;;28.70;99.90;;;;;;5094084;28;20167;-65
2021/06/11 16:48:00;;;;;;;493.48;468.33;;;28.60;99.90;;;;;;5094032;28;20205;-65
2021/06/11 16:50:26;;;;;;;387.23;368.92;;;28.70;99.90;;;;;;5093924;28;20171;-65
2021/06/11 16:52:52;;;;;;;295.88;282.27;;;28.80;99.90;;;;;;5093944;28;20171;-65
2021/06/11 16:55:18;;;;;;;354.08;337.70;;;29.00;99.90;;;;;;5093785;28;20159;-65
2021/06/11 16:57:43;;;;;;;245.20;234.23;;;29.30;99.90;;;;;;5093848;28;20167;-65
2021/06/11 17:00:12;;;;;;;305.23;291.35;;;29.70;99.90;;;;;;5093754;28;20206;-65
2021/06/11 17:02:37;;;;;;;347.27;331.20;;;29.50;99.90;;;;;;5093592;28;20723;-65
2021/06/11 17:05:04;;;;;;;371.27;353.83;;;29.10;99.90;;;;;;5093708;28;20167;-65
2021/06/11 17:07:30;;;;;;;398.02;379.05;;;28.90;99.90;;;;;;5093705;28;20160;-65
2021/06/11 17:09:55;;;;;;;402.70;383.33;;;28.80;99.90;;;;;;5093618;28;20279;-65
2021/06/11 17:12:21;;;;;;;498.70;472.90;;;28.70;99.90;;;;;;5093638;28;20182;-65
2021/06/11 17:14:47;;;;;;;522.15;494.90;;;28.70;99.90;;;;;;5093510;28;20268;-65
2021/06/11 17:17:13;;;;;;;495.77;470.27;;;28.30;99.90;;;;;;5093609;28;20171;-65
2021/06/11 17:19:38;;;;;;;436.30;415.05;;;28.10;99.90;;;;;;5093503;28;20246;-65
2021/06/11 17:22:04;;;;;;;437.05;415.58;;;28.20;99.90;;;;;;5093470;28;20167;-65
2021/06/11 17:24:31;;;;;;;474.45;450.42;;;28.30;99.90;;;;;;5093446;28;20171;-65
2021/06/11 17:26:57;;;;;;;511.63;485.13;;;28.10;99.90;;;;;;5093417;28;20167;-65
2021/06/11 17:29:39;;;;;;;521.22;494.10;;;28.10;99.90;;;;;;5093431;28;20246;-65
2021/06/11 17:32:11;;;;;;;375.42;357.77;;;27.80;99.90;;;;;;5093189;28;20162;-65
2021/06/11 17:34:39;;;;;;;369.20;351.83;;;27.70;99.90;;;;;;5093440;28;20163;-65
2021/06/11 17:37:07;;;;;;;375.33;357.65;;;27.60;99.90;;;;;;5092732;28;20194;-65
2021/06/11 17:39:34;;;;;;;306.65;292.67;;;27.50;99.90;;;;;;5093465;28;20183;-65
2021/06/11 17:42:00;;;;;;;298.88;285.15;;;27.70;99.90;;;;;;5093173;28;20668;-65
2021/06/11 17:44:26;;;;;;;432.98;411.77;;;28.10;99.90;;;;;;5093214;28;20312;-65
2021/06/11 17:46:56;;;;;;;425.80;405.02;;;28.40;99.90;;;;;;5093278;28;20167;-65
2021/06/11 17:49:35;;;;;;;311.13;296.98;;;28.40;99.90;;;;;;5093198;28;20250;-65
2021/06/11 17:52:05;;;;;;;358.50;341.83;;;28.70;99.90;;;;;;5093179;28;20715;-65
2021/06/11 17:54:31;;;;;;;392.58;374.00;;;28.50;99.90;;;;;;5093622;28;20623;-65
2021/06/11 17:56:58;;;;;;;308.10;293.77;;;28.30;99.90;;;;;;5097278;28;20221;-65
2021/06/11 17:59:32;;;;;;;440.80;419.10;;;28.10;99.90;;;;;;5097318;28;20629;-65
2021/06/11 18:02:04;;;;;;;363.42;346.60;;;27.80;99.90;;;;;;5097034;28;20167;-65
2021/06/11 18:04:33;;;;;;;388.38;369.95;;;27.40;99.90;;;;;;5097161;28;20636;-65
2021/06/11 18:07:07;;;;;;;334.88;319.42;;;27.00;99.90;;;;;;5097181;28;20240;-65
2021/06/11 18:09:33;;;;;;;387.10;368.73;;;26.50;99.90;;;;;;5097118;28;20181;-65
2021/06/11 18:12:00;;;;;;;311.55;297.30;;;26.10;99.90;;;;;;5097006;28;20164;-65
2021/06/11 18:14:26;;;;;;;329.92;314.65;;;25.80;99.90;;;;;;5097458;28;20171;-65
2021/06/11 18:16:52;;;;;;;320.35;305.25;;;25.60;99.90;;;;;;5096913;28;20167;-65
2021/06/11 18:19:18;;;;;;;385.85;364.60;;;25.60;99.90;;;;;;5096872;28;20621;-66
2021/06/11 18:21:52;;;;;;;309.98;295.83;;;25.70;99.90;;;;;;5096811;28;20159;-65
2021/06/11 18:24:29;;;;;;;284.33;271.45;;;25.70;99.90;;;;;;5096702;28;20222;-65
2021/06/11 18:27:05;;;;;;;316.08;301.70;;;25.50;99.90;;;;;;5096719;28;20159;-65
2021/06/11 18:29:53;;;;;;;279.13;266.50;;;25.30;99.90;;;;;;5096682;28;20220;-65
2021/06/11 18:32:35;;;;;;;248.02;236.85;;;25.20;99.90;;;;;;5095211;28;20660;-65
2021/06/11 18:35:18;;;;;;;231.65;221.23;;;25.20;99.90;;;;;;5096636;28;20171;-65
2021/06/11 18:37:48;;;;;;;215.65;205.90;;;25.60;99.90;;;;;;5096579;28;20175;-65
2021/06/11 18:40:20;;;;;;;249.98;238.68;;;26.10;99.90;;;;;;5095267;28;20173;-65
2021/06/11 18:43:03;;;;;;;209.13;199.70;;;26.30;99.90;;;;;;5096386;28;20194;-65
2021/06/11 18:45:40;;;;;;;239.10;228.30;;;26.50;99.90;;;;;;5096442;28;20159;-65
2021/06/11 18:50:51;;;;;;;243.30;232.30;;;26.50;99.90;;;;;;5096454;28;20229;-65
2021/06/11 18:53:21;;;;;;;262.70;250.80;;;26.40;99.90;;;;;;5096266;28;20163;-65
2021/06/11 18:55:56;;;;;;;283.77;270.90;;;26.00;99.90;;;;;;5096205;28;20170;-65
2021/06/11 18:58:32;;;;;;;201.00;191.85;;;25.60;99.90;;;;;;5096173;28;20668;-65
2021/06/11 19:00:58;;;;;;;235.25;224.65;;;25.40;99.90;;;;;;5096134;28;20639;-65
2021/06/11 19:03:24;;;;;;;242.15;231.23;;;25.20;99.90;;;;;;5095920;28;20199;-65
2021/06/11 19:06:08;;;;;;;234.63;223.93;;;25.10;99.90;;;;;;5095518;28;20159;-65
2021/06/11 19:08:39;;;;;;;270.50;258.23;;;25.10;99.90;;;;;;5095899;28;20159;-65
2021/06/11 19:11:18;;;;;;;251.75;240.35;;;24.80;99.90;;;;;;5095859;28;20175;-65
2021/06/11 19:14:05;;;;;;;296.33;282.90;;;24.60;99.90;;;;;;5095845;28;20167;-65
2021/06/11 19:16:47;;;;;;;294.05;280.65;;;24.30;99.90;;;;;;5095792;28;20167;-65
2021/06/11 19:19:14;;;;;;;336.88;321.48;;;24.10;99.90;;;;;;5095754;28;20578;-65
2021/06/11 19:21:56;;;;;;;329.13;314.00;;;23.90;99.90;;;;;;5095683;28;20175;-65
